Bayou Goula, Louisiana
Current Conditions -  °F | °C
As of 12:55 PM on Tuesday 27 Jan 2015 (Local Time) from KL38 Reporting Station
Clear Clear  
Wind Chill: 72°   Ceiling: Unl
Heat Index: 72°   Visibility: 10mi
Dew Point: 40°   Wind: 8mph
Humidity: 32%   Direction: 330°NNW
Pressure: 30.09"   Gusts: NA
Location:  30.21°N, 91.17°W
Report Text: KL38 271855Z AUTO 33007KT 10SM CLR 22/05 A3009 RMK AO2 T02200045
Loading
Personal Weather Stations






























Interactive Weather Map New forecast layout! Learn more

10-Day Weather Forecast

Advertisements
Track Severe Weather on mobile